sensor_id;sensor_type;location;lat;lon;timestamp;P1;durP1;ratioP1;P2;durP2;ratioP2
39082;SDS011;24834;44.444;26.098;2022-08-02T00:02:33;10.25;;;10.25;;
39082;SDS011;24834;44.444;26.098;2022-08-02T00:08:36;8.75;;;8.50;;
39082;SDS011;24834;44.444;26.098;2022-08-02T00:14:38;8.75;;;8.75;;
39082;SDS011;24834;44.444;26.098;2022-08-02T00:20:40;9.50;;;9.50;;
39082;SDS011;24834;44.444;26.098;2022-08-02T00:26:42;12.25;;;12.25;;
39082;SDS011;24834;44.444;26.098;2022-08-02T00:32:46;10.33;;;10.33;;
39082;SDS011;24834;44.444;26.098;2022-08-02T00:38:50;15.33;;;12.67;;
39082;SDS011;24834;44.444;26.098;2022-08-02T00:44:53;12.00;;;12.00;;
39082;SDS011;24834;44.444;26.098;2022-08-02T00:50:55;13.50;;;13.25;;
39082;SDS011;24834;44.444;26.098;2022-08-02T00:57:04;16.67;;;15.33;;
39082;SDS011;24834;44.444;26.098;2022-08-02T01:03:06;15.33;;;15.33;;
39082;SDS011;24834;44.444;26.098;2022-08-02T01:09:09;16.75;;;15.75;;
39082;SDS011;24834;44.444;26.098;2022-08-02T01:15:12;14.75;;;13.50;;
39082;SDS011;24834;44.444;26.098;2022-08-02T01:21:28;15.33;;;14.67;;
39082;SDS011;24834;44.444;26.098;2022-08-02T01:27:42;15.25;;;14.75;;
39082;SDS011;24834;44.444;26.098;2022-08-02T01:34:05;14.25;;;14.25;;
39082;SDS011;24834;44.444;26.098;2022-08-02T01:40:27;12.33;;;12.33;;
39082;SDS011;24834;44.444;26.098;2022-08-02T01:46:32;17.00;;;14.33;;
39082;SDS011;24834;44.444;26.098;2022-08-02T01:52:36;13.25;;;12.25;;
39082;SDS011;24834;44.444;26.098;2022-08-02T01:58:54;14.00;;;14.00;;
39082;SDS011;24834;44.444;26.098;2022-08-02T02:04:57;17.33;;;16.33;;
39082;SDS011;24834;44.444;26.098;2022-08-02T02:11:04;18.50;;;13.75;;
39082;SDS011;24834;44.444;26.098;2022-08-02T02:17:29;15.67;;;14.00;;
39082;SDS011;24834;44.444;26.098;2022-08-02T02:23:54;14.00;;;14.00;;
39082;SDS011;24834;44.444;26.098;2022-08-02T02:29:58;14.00;;;14.00;;
39082;SDS011;24834;44.444;26.098;2022-08-02T02:36:01;17.67;;;17.67;;
39082;SDS011;24834;44.444;26.098;2022-08-02T02:42:06;16.67;;;16.67;;
39082;SDS011;24834;44.444;26.098;2022-08-02T02:48:13;15.00;;;15.00;;
39082;SDS011;24834;44.444;26.098;2022-08-02T02:54:17;16.75;;;15.50;;
39082;SDS011;24834;44.444;26.098;2022-08-02T03:00:35;17.25;;;15.00;;
39082;SDS011;24834;44.444;26.098;2022-08-02T03:06:56;16.67;;;15.33;;
39082;SDS011;24834;44.444;26.098;2022-08-02T03:13:01;16.33;;;14.33;;
39082;SDS011;24834;44.444;26.098;2022-08-02T03:19:03;13.00;;;13.00;;
39082;SDS011;24834;44.444;26.098;2022-08-02T03:25:06;18.00;;;15.33;;
39082;SDS011;24834;44.444;26.098;2022-08-02T03:31:09;17.00;;;17.00;;
39082;SDS011;24834;44.444;26.098;2022-08-02T03:37:13;17.25;;;16.50;;
39082;SDS011;24834;44.444;26.098;2022-08-02T03:43:17;16.67;;;16.33;;
39082;SDS011;24834;44.444;26.098;2022-08-02T03:49:23;13.00;;;11.00;;
39082;SDS011;24834;44.444;26.098;2022-08-02T03:55:26;14.25;;;14.25;;
39082;SDS011;24834;44.444;26.098;2022-08-02T04:07:49;13.50;;;13.00;;
39082;SDS011;24834;44.444;26.098;2022-08-02T04:14:12;13.75;;;12.75;;
